createdAt,value
2023-03-17T00:01:54.662Z,5.10
2023-03-17T00:04:26.401Z,5.10
2023-03-17T00:06:54.379Z,5.10
2023-03-17T00:09:22.269Z,5.10
2023-03-17T00:11:50.023Z,5.10
2023-03-17T00:14:17.732Z,5.00
2023-03-17T00:16:49.556Z,5.00
2023-03-17T00:19:18.987Z,4.90
2023-03-17T00:21:48.632Z,4.80
2023-03-17T00:24:15.928Z,4.70
2023-03-17T00:26:43.315Z,4.70
2023-03-17T00:29:10.347Z,4.50
2023-03-17T00:31:38.133Z,4.50
2023-03-17T00:34:05.738Z,4.40
2023-03-17T00:36:34.194Z,4.30
2023-03-17T00:39:01.477Z,4.30
2023-03-17T00:41:29.489Z,4.20
2023-03-17T00:43:57.127Z,4.20
2023-03-17T00:46:29.080Z,4.20
2023-03-17T00:48:56.060Z,4.20
2023-03-17T00:51:23.487Z,4.20
2023-03-17T00:53:50.395Z,4.20
2023-03-17T00:56:20.678Z,4.20
2023-03-17T00:58:48.660Z,4.20
2023-03-17T01:01:15.881Z,4.20
2023-03-17T01:03:42.790Z,4.20
2023-03-17T01:06:12.723Z,4.20
2023-03-17T01:08:41.076Z,4.20
2023-03-17T01:11:21.171Z,4.20
2023-03-17T01:13:48.262Z,4.20
2023-03-17T01:16:15.691Z,4.10
2023-03-17T01:18:43.416Z,4.10
2023-03-17T01:21:10.394Z,4.10
2023-03-17T01:23:37.436Z,4.10
2023-03-17T01:26:04.786Z,4.10
2023-03-17T01:28:31.541Z,4.00
2023-03-17T01:30:58.690Z,4.00
2023-03-17T01:33:26.389Z,4.10
2023-03-17T01:35:53.301Z,4.10
2023-03-17T01:38:20.114Z,4.00
2023-03-17T01:40:51.779Z,4.00
2023-03-17T01:43:30.647Z,3.90
2023-03-17T01:46:20.901Z,3.90
2023-03-17T01:48:53.243Z,3.90
2023-03-17T01:51:44.500Z,3.90
2023-03-17T01:54:16.378Z,3.80
2023-03-17T01:56:45.934Z,3.80
2023-03-17T01:59:23.839Z,3.80
2023-03-17T02:01:54.652Z,3.80
2023-03-17T02:04:21.869Z,3.70
2023-03-17T02:06:58.062Z,3.70
2023-03-17T02:09:27.026Z,3.70
2023-03-17T02:11:55.574Z,3.80
2023-03-17T02:14:22.381Z,3.80
2023-03-17T02:16:49.437Z,3.80
2023-03-17T02:19:16.670Z,3.80
2023-03-17T02:21:46.530Z,3.80
2023-03-17T02:24:43.272Z,3.90
2023-03-17T02:27:18.535Z,3.80
2023-03-17T02:29:49.168Z,3.80
2023-03-17T02:32:18.654Z,3.90
2023-03-17T02:34:46.983Z,3.80
2023-03-17T02:37:15.095Z,3.90
2023-03-17T02:39:42.556Z,3.90
2023-03-17T02:42:09.958Z,3.90
2023-03-17T02:44:37.003Z,3.90
2023-03-17T02:47:03.995Z,3.90
2023-03-17T02:49:32.824Z,3.90
2023-03-17T02:51:59.679Z,3.90
2023-03-17T02:54:26.573Z,3.90
2023-03-17T02:56:53.311Z,3.80
2023-03-17T02:59:20.095Z,3.80
2023-03-17T03:01:48.518Z,3.80
2023-03-17T03:04:15.422Z,3.80
2023-03-17T03:06:44.516Z,3.90
2023-03-17T03:09:11.939Z,3.90
2023-03-17T03:11:39.501Z,3.90
2023-03-17T03:14:06.919Z,3.90
2023-03-17T03:16:33.940Z,3.90
2023-03-17T03:19:00.878Z,3.90
2023-03-17T03:21:27.663Z,3.90
2023-03-17T03:23:54.478Z,3.90
2023-03-17T03:26:21.422Z,3.90
2023-03-17T03:28:48.504Z,3.90
2023-03-17T03:31:16.076Z,3.90
2023-03-17T03:33:43.322Z,3.90
2023-03-17T03:36:10.302Z,3.90
2023-03-17T03:38:37.182Z,3.80
2023-03-17T03:41:04.141Z,3.80
2023-03-17T03:43:31.151Z,3.90
2023-03-17T03:45:58.084Z,3.80
2023-03-17T03:48:24.868Z,3.80
2023-03-17T03:50:55.391Z,3.80
2023-03-17T03:53:22.169Z,3.80
2023-03-17T03:55:48.891Z,3.80
2023-03-17T03:58:15.932Z,3.70
2023-03-17T04:00:42.705Z,3.70
2023-03-17T04:03:09.508Z,3.80
2023-03-17T04:05:36.255Z,3.70
2023-03-17T04:08:03.145Z,3.80
2023-03-17T04:10:30.163Z,3.70
2023-03-17T04:12:57.411Z,3.70
2023-03-17T04:15:24.498Z,3.70
2023-03-17T04:17:51.824Z,3.70
2023-03-17T04:20:19.247Z,3.80
2023-03-17T04:22:46.537Z,3.70
2023-03-17T04:25:14.724Z,3.70
2023-03-17T04:27:42.579Z,3.70
2023-03-17T04:30:13.542Z,3.80
2023-03-17T04:32:41.727Z,3.80
2023-03-17T04:35:12.935Z,3.80
2023-03-17T04:37:39.656Z,3.70
2023-03-17T04:40:10.032Z,3.70
2023-03-17T04:42:37.614Z,3.70
2023-03-17T04:45:06.416Z,3.70
2023-03-17T04:47:33.459Z,3.70
2023-03-17T04:50:00.692Z,3.70
2023-03-17T04:52:28.365Z,3.70
2023-03-17T04:54:55.222Z,3.70
2023-03-17T04:57:22.275Z,3.80
2023-03-17T04:59:49.091Z,3.80
2023-03-17T05:02:15.952Z,3.80
2023-03-17T05:04:43.146Z,3.80
2023-03-17T05:07:09.958Z,3.80
2023-03-17T05:09:37.083Z,3.80
2023-03-17T05:12:04.255Z,3.80
2023-03-17T05:14:31.114Z,3.80
2023-03-17T05:16:57.938Z,3.80
2023-03-17T05:19:24.796Z,3.80
2023-03-17T05:21:51.514Z,3.80
2023-03-17T05:24:18.249Z,3.80
2023-03-17T05:26:45.462Z,3.90
2023-03-17T05:29:12.237Z,3.90
2023-03-17T05:31:39.013Z,3.90
2023-03-17T05:34:06.051Z,3.90
2023-03-17T05:36:33.641Z,3.90
2023-03-17T05:39:00.368Z,3.90
2023-03-17T05:41:27.227Z,3.90
2023-03-17T05:43:54.100Z,4.00
2023-03-17T05:46:21.663Z,4.00
2023-03-17T05:48:48.861Z,4.00
2023-03-17T05:51:15.781Z,4.10
2023-03-17T05:53:43.344Z,4.00
2023-03-17T05:56:10.067Z,4.00
2023-03-17T05:58:36.864Z,4.00
2023-03-17T06:01:03.616Z,4.00
2023-03-17T06:03:30.601Z,4.00
2023-03-17T06:05:57.382Z,4.00
2023-03-17T06:08:24.481Z,4.00
2023-03-17T06:10:51.436Z,4.00
2023-03-17T06:13:18.229Z,4.00
2023-03-17T06:15:46.646Z,4.10
2023-03-17T06:18:13.670Z,4.10
2023-03-17T06:20:41.554Z,4.10
2023-03-17T06:23:08.473Z,4.20
2023-03-17T06:25:35.771Z,4.20
2023-03-17T06:28:04.232Z,4.30
2023-03-17T06:30:33.104Z,4.40
2023-03-17T06:33:01.144Z,4.50
2023-03-17T06:35:28.839Z,4.70
2023-03-17T06:37:55.996Z,4.70
2023-03-17T06:40:22.790Z,4.80
2023-03-17T06:42:49.619Z,4.90
2023-03-17T06:45:17.331Z,5.00
2023-03-17T06:47:44.092Z,5.00
2023-03-17T06:50:12.170Z,5.00
2023-03-17T06:52:39.957Z,5.00
2023-03-17T06:55:07.661Z,5.00
2023-03-17T06:57:34.538Z,5.00
2023-03-17T07:00:01.517Z,5.00
2023-03-17T07:02:28.509Z,5.00
2023-03-17T07:04:57.693Z,5.00
2023-03-17T07:07:25.138Z,5.00
2023-03-17T07:09:52.787Z,5.00
2023-03-17T07:12:20.146Z,5.00
2023-03-17T07:14:46.982Z,5.00
2023-03-17T07:17:14.626Z,5.10
2023-03-17T07:19:42.354Z,5.10
2023-03-17T07:22:12.524Z,5.10
2023-03-17T07:24:39.763Z,5.20
2023-03-17T07:27:07.014Z,5.20
2023-03-17T07:29:34.539Z,5.20
2023-03-17T07:32:02.072Z,5.20
2023-03-17T07:34:29.108Z,5.30
2023-03-17T07:36:55.956Z,5.30
2023-03-17T07:39:22.769Z,5.40
2023-03-17T07:41:55.077Z,5.40
2023-03-17T07:44:23.291Z,5.40
2023-03-17T07:46:51.512Z,5.50
2023-03-17T07:49:27.622Z,5.50
2023-03-17T07:52:01.073Z,5.60
2023-03-17T07:54:29.396Z,5.60
2023-03-17T07:56:56.897Z,5.60
2023-03-17T07:59:23.752Z,5.70
2023-03-17T08:01:50.786Z,5.70
2023-03-17T08:04:17.840Z,5.80
2023-03-17T08:06:46.935Z,5.90
2023-03-17T08:09:13.858Z,6.00
2023-03-17T08:11:40.672Z,6.10
2023-03-17T08:14:07.686Z,6.20
2023-03-17T08:16:34.575Z,6.30
2023-03-17T08:19:03.896Z,6.30
2023-03-17T08:21:31.337Z,6.40
2023-03-17T08:23:58.403Z,6.40
2023-03-17T08:26:25.532Z,6.50
2023-03-17T08:28:52.396Z,6.60
2023-03-17T08:31:22.679Z,6.70
2023-03-17T08:33:52.449Z,6.80
2023-03-17T08:36:20.665Z,6.80
2023-03-17T08:38:47.979Z,7.00
2023-03-17T08:41:18.313Z,7.10
2023-03-17T08:43:46.233Z,7.20
2023-03-17T08:46:20.337Z,7.30
2023-03-17T08:48:49.134Z,7.40
2023-03-17T08:51:18.731Z,7.50
2023-03-17T08:53:46.701Z,7.50
2023-03-17T08:56:14.662Z,7.60
2023-03-17T08:58:43.155Z,7.70
2023-03-17T09:01:10.774Z,7.70
2023-03-17T09:03:40.768Z,7.90
2023-03-17T09:06:11.101Z,8.00
2023-03-17T09:08:39.867Z,8.10
2023-03-17T09:11:07.596Z,8.60
2023-03-17T09:13:37.265Z,9.00
2023-03-17T09:16:04.136Z,8.90
2023-03-17T09:18:32.951Z,8.90
2023-03-17T09:21:00.178Z,9.10
2023-03-17T09:23:27.031Z,9.20
2023-03-17T09:25:53.915Z,9.20
2023-03-17T09:28:20.660Z,9.30
2023-03-17T09:30:47.662Z,9.20
2023-03-17T09:33:20.930Z,9.10
2023-03-17T09:35:48.044Z,9.00
2023-03-17T09:38:14.799Z,8.90
2023-03-17T09:40:54.402Z,8.80
2023-03-17T09:43:32.986Z,8.70
2023-03-17T09:46:24.834Z,8.80
2023-03-17T09:49:01.531Z,8.80
2023-03-17T09:51:31.579Z,8.90
2023-03-17T09:54:23.021Z,9.10
2023-03-17T09:56:58.695Z,9.10
2023-03-17T09:59:33.324Z,9.10
2023-03-17T10:02:01.703Z,9.30
2023-03-17T10:04:28.924Z,9.60
2023-03-17T10:07:04.627Z,9.70
2023-03-17T10:09:37.338Z,10.20
2023-03-17T10:12:15.282Z,10.70
2023-03-17T10:14:51.511Z,11.60
2023-03-17T10:17:22.302Z,12.50
2023-03-17T10:19:55.766Z,13.20
2023-03-17T10:22:32.361Z,13.20
2023-03-17T10:25:05.224Z,14.60
2023-03-17T10:27:37.239Z,15.90
2023-03-17T10:30:06.109Z,17.00
2023-03-17T10:32:37.654Z,17.10
2023-03-17T10:35:05.069Z,16.90
2023-03-17T10:37:36.573Z,16.70
2023-03-17T10:40:10.156Z,16.70
2023-03-17T10:42:47.687Z,18.00
2023-03-17T10:45:16.816Z,19.10
2023-03-17T10:47:49.115Z,19.80
2023-03-17T10:50:22.056Z,19.90
2023-03-17T10:53:13.433Z,19.20
2023-03-17T10:55:42.569Z,18.40
2023-03-17T10:58:19.388Z,17.40
2023-03-17T11:01:17.472Z,16.90
2023-03-17T11:03:44.408Z,16.50
2023-03-17T11:06:14.317Z,16.40
2023-03-17T11:08:53.743Z,15.90
2023-03-17T11:11:23.729Z,16.20
2023-03-17T11:13:50.561Z,17.40
2023-03-17T11:16:24.701Z,18.50
2023-03-17T11:18:56.552Z,18.80
2023-03-17T11:21:47.739Z,18.40
2023-03-17T11:24:19.819Z,17.80
2023-03-17T11:27:00.009Z,17.10
2023-03-17T11:29:35.735Z,17.00
2023-03-17T11:32:15.245Z,17.00
2023-03-17T11:35:14.062Z,16.70
2023-03-17T11:38:01.897Z,16.10
2023-03-17T11:40:51.507Z,15.70
2023-03-17T11:43:45.371Z,15.30
2023-03-17T11:46:45.036Z,15.20
2023-03-17T11:49:11.803Z,14.80
2023-03-17T11:52:05.730Z,14.50
2023-03-17T11:55:18.123Z,14.40
2023-03-17T11:57:57.586Z,14.10
2023-03-17T12:00:38.445Z,14.00
2023-03-17T12:03:40.210Z,13.80
2023-03-17T12:06:15.406Z,13.70
2023-03-17T12:08:45.921Z,13.60
2023-03-17T12:11:29.686Z,13.70
2023-03-17T12:14:06.852Z,14.20
2023-03-17T12:16:57.020Z,14.90
2023-03-17T12:19:29.785Z,15.90
2023-03-17T12:22:01.231Z,16.70
2023-03-17T12:24:40.379Z,16.90
2023-03-17T12:27:22.509Z,16.80
2023-03-17T12:29:57.640Z,16.90
2023-03-17T12:32:35.560Z,16.70
2023-03-17T12:35:34.099Z,16.90
2023-03-17T12:38:07.970Z,17.00
2023-03-17T12:40:53.885Z,17.60
2023-03-17T12:44:16.844Z,18.00
2023-03-17T12:46:47.481Z,18.30
2023-03-17T12:49:23.169Z,17.90
2023-03-17T12:52:10.371Z,17.90
2023-03-17T12:54:38.451Z,17.60
2023-03-17T12:57:31.600Z,16.90
2023-03-17T13:00:15.382Z,16.50
2023-03-17T13:02:49.582Z,15.90
2023-03-17T13:05:19.474Z,15.50
2023-03-17T13:07:53.993Z,15.10
2023-03-17T13:10:41.872Z,15.00
2023-03-17T13:13:11.727Z,14.70
2023-03-17T13:15:39.686Z,14.60
2023-03-17T13:18:13.677Z,14.40
2023-03-17T13:20:43.222Z,14.10
2023-03-17T13:23:19.229Z,13.80
2023-03-17T13:25:53.574Z,13.70
2023-03-17T13:28:27.565Z,13.60
2023-03-17T13:30:56.977Z,13.50
2023-03-17T13:33:31.465Z,13.50
2023-03-17T13:36:05.418Z,13.40
2023-03-17T13:38:35.467Z,13.40
2023-03-17T13:41:20.611Z,13.30
2023-03-17T13:44:03.396Z,13.20
2023-03-17T13:46:39.917Z,13.30
2023-03-17T13:49:18.969Z,13.30
2023-03-17T13:52:01.913Z,13.20
2023-03-17T13:54:28.926Z,13.20
2023-03-17T13:56:59.334Z,13.20
2023-03-17T13:59:50.293Z,13.30
2023-03-17T14:02:20.638Z,13.30
2023-03-17T14:04:59.382Z,13.40
2023-03-17T14:07:31.592Z,13.30
2023-03-17T14:10:05.695Z,13.20
2023-03-17T14:12:46.680Z,13.20
2023-03-17T14:15:34.976Z,13.20
2023-03-17T14:18:12.796Z,13.20
2023-03-17T14:20:39.662Z,13.20
2023-03-17T14:23:06.587Z,13.30
2023-03-17T14:25:39.062Z,13.20
2023-03-17T14:28:13.940Z,13.10
2023-03-17T14:30:50.280Z,13.20
2023-03-17T14:33:29.963Z,13.20
2023-03-17T14:35:59.174Z,13.10
2023-03-17T14:38:31.901Z,13.10
2023-03-17T14:41:18.239Z,13.10
2023-03-17T14:43:45.650Z,13.10
2023-03-17T14:46:32.574Z,13.10
2023-03-17T14:49:02.476Z,13.10
2023-03-17T14:51:36.540Z,13.10
2023-03-17T14:54:16.184Z,13.30
2023-03-17T14:56:48.569Z,13.30
2023-03-17T14:59:29.178Z,13.20
2023-03-17T15:01:58.375Z,13.20
2023-03-17T15:04:28.637Z,13.20
2023-03-17T15:07:04.969Z,13.20
2023-03-17T15:16:33.858Z,12.90
2023-03-17T15:19:28.903Z,12.90
2023-03-17T15:21:59.899Z,12.90
2023-03-17T15:24:40.490Z,12.90
2023-03-17T15:27:14.254Z,12.90
2023-03-17T15:29:41.690Z,12.90
2023-03-17T15:32:20.045Z,12.90
2023-03-17T15:34:51.812Z,12.90
2023-03-17T15:37:27.364Z,12.80
2023-03-17T15:39:55.718Z,12.80
2023-03-17T15:42:26.284Z,12.70
2023-03-17T15:44:54.023Z,12.60
2023-03-17T15:47:24.231Z,12.50
2023-03-17T15:49:51.899Z,12.50
2023-03-17T15:52:22.925Z,12.40
2023-03-17T15:54:49.819Z,12.30
2023-03-17T15:57:17.138Z,12.30
2023-03-17T15:59:44.591Z,12.20
2023-03-17T16:02:31.765Z,12.10
2023-03-17T16:05:01.475Z,11.90
2023-03-17T16:07:30.759Z,11.90
2023-03-17T16:09:57.952Z,11.80
2023-03-17T16:12:25.352Z,11.70
2023-03-17T16:14:52.157Z,11.70
2023-03-17T16:17:29.999Z,11.70
2023-03-17T16:19:57.445Z,11.60
2023-03-17T16:22:43.760Z,11.50
2023-03-17T16:25:19.169Z,11.50
2023-03-17T16:27:46.816Z,11.40
2023-03-17T16:30:26.005Z,11.40
2023-03-17T16:32:54.531Z,11.30
2023-03-17T16:35:23.785Z,11.20
2023-03-17T16:37:54.438Z,11.20
2023-03-17T16:40:21.629Z,11.10
2023-03-17T16:42:48.751Z,11.10
2023-03-17T16:45:34.793Z,11.00
2023-03-17T16:48:03.755Z,11.00
2023-03-17T16:50:33.818Z,11.00
2023-03-17T16:53:00.850Z,11.00
2023-03-17T16:55:29.321Z,10.90
2023-03-17T16:58:00.639Z,10.90
2023-03-17T17:00:30.467Z,10.80
2023-03-17T17:02:58.324Z,10.70
2023-03-17T17:05:31.145Z,10.70
2023-03-17T17:07:59.040Z,10.70
2023-03-17T17:10:28.853Z,10.60
2023-03-17T17:12:55.962Z,10.60
2023-03-17T17:15:23.821Z,10.60
2023-03-17T17:18:06.909Z,10.50
2023-03-17T17:20:38.589Z,10.50
2023-03-17T17:23:07.384Z,10.40
2023-03-17T17:25:34.259Z,10.40
2023-03-17T17:28:01.127Z,10.30
2023-03-17T17:30:30.094Z,10.30
2023-03-17T17:32:59.282Z,10.30
2023-03-17T17:35:30.714Z,10.30
2023-03-17T17:37:59.743Z,10.20
2023-03-17T17:40:26.969Z,10.20
2023-03-17T17:42:54.256Z,10.20
2023-03-17T17:45:21.495Z,10.10
2023-03-17T17:47:48.753Z,10.10
2023-03-17T17:50:26.377Z,10.20
2023-03-17T17:52:53.631Z,10.20
2023-03-17T17:55:21.334Z,10.20
2023-03-17T17:57:48.148Z,10.20
2023-03-17T18:00:17.370Z,10.20
2023-03-17T18:02:45.137Z,10.20
2023-03-17T18:05:12.953Z,10.20
2023-03-17T18:07:40.633Z,10.20
2023-03-17T18:10:08.302Z,10.30
2023-03-17T18:12:35.176Z,10.40
2023-03-17T18:15:01.995Z,10.40
2023-03-17T18:17:31.238Z,10.50
2023-03-17T18:19:59.310Z,10.40
2023-03-17T18:22:26.129Z,10.40
2023-03-17T18:24:53.242Z,10.40
2023-03-17T18:27:20.260Z,10.40
2023-03-17T18:29:47.408Z,10.30
2023-03-17T18:32:24.088Z,10.30
2023-03-17T18:35:03.193Z,10.30
2023-03-17T18:37:32.476Z,10.20
2023-03-17T18:40:12.900Z,10.20
2023-03-17T18:42:41.542Z,10.20
2023-03-17T18:45:09.861Z,10.10
2023-03-17T18:47:39.281Z,10.00
2023-03-17T18:50:08.735Z,10.00
2023-03-17T18:52:37.889Z,9.90
2023-03-17T18:55:05.439Z,9.90
2023-03-17T18:57:32.583Z,9.90
2023-03-17T18:59:59.544Z,9.90
2023-03-17T19:02:26.674Z,9.80
2023-03-17T19:04:53.473Z,9.70
2023-03-17T19:07:22.284Z,9.70
2023-03-17T19:09:49.365Z,9.60
2023-03-17T19:12:16.553Z,9.60
2023-03-17T19:14:43.818Z,9.60
2023-03-17T19:17:10.829Z,9.50
2023-03-17T19:19:37.798Z,9.60
2023-03-17T19:22:06.298Z,9.60
2023-03-17T19:24:35.650Z,9.60
2023-03-17T19:27:02.724Z,9.60
2023-03-17T19:29:29.700Z,9.60
2023-03-17T19:31:56.520Z,9.60
2023-03-17T19:34:23.340Z,9.50
2023-03-17T19:36:51.217Z,9.50
2023-03-17T19:39:18.811Z,9.50
2023-03-17T19:41:47.845Z,9.50
2023-03-17T19:44:14.677Z,9.50
2023-03-17T19:46:41.572Z,9.50
2023-03-17T19:49:08.368Z,9.50
2023-03-17T19:51:36.032Z,9.50
2023-03-17T19:54:03.127Z,9.50
2023-03-17T19:56:30.126Z,9.50
2023-03-17T19:58:56.839Z,9.40
2023-03-17T20:01:23.711Z,9.40
2023-03-17T20:03:50.566Z,9.30
2023-03-17T20:06:17.784Z,9.30
2023-03-17T20:08:44.964Z,9.20
2023-03-17T20:11:12.785Z,9.20
2023-03-17T20:13:41.003Z,9.20
2023-03-17T20:16:08.585Z,9.20
2023-03-17T20:18:36.363Z,9.20
2023-03-17T20:21:36.670Z,9.20
2023-03-17T20:24:03.736Z,9.30
2023-03-17T20:26:30.530Z,9.40
2023-03-17T20:28:57.492Z,9.40
2023-03-17T20:31:24.336Z,9.50
2023-03-17T20:33:51.581Z,9.50
2023-03-17T20:36:18.343Z,9.40
2023-03-17T20:38:45.390Z,9.50
2023-03-17T20:41:15.981Z,9.50
2023-03-17T20:43:43.404Z,9.50
2023-03-17T20:46:15.972Z,9.50
2023-03-17T20:48:44.199Z,9.50
2023-03-17T20:51:16.708Z,9.50
2023-03-17T20:53:48.930Z,9.50
2023-03-17T20:56:18.793Z,9.50
2023-03-17T20:58:46.961Z,9.50
2023-03-17T21:01:15.032Z,9.40
2023-03-17T21:03:43.261Z,9.50
2023-03-17T21:06:10.712Z,9.40
2023-03-17T21:08:38.606Z,9.40
2023-03-17T21:11:07.997Z,9.30
2023-03-17T21:13:35.542Z,9.30
2023-03-17T21:16:02.742Z,9.30
2023-03-17T21:18:30.018Z,9.20
2023-03-17T21:20:56.931Z,9.20
2023-03-17T21:23:23.920Z,9.20
2023-03-17T21:25:55.849Z,9.20
2023-03-17T21:28:23.108Z,9.10
2023-03-17T21:30:50.260Z,9.10
2023-03-17T21:33:17.144Z,9.00
2023-03-17T21:35:44.000Z,9.00
2023-03-17T21:38:11.039Z,9.00
2023-03-17T21:40:37.820Z,8.90
2023-03-17T21:43:05.645Z,8.90
2023-03-17T21:45:32.586Z,8.90
2023-03-17T21:47:59.377Z,8.80
2023-03-17T21:50:27.131Z,8.80
2023-03-17T21:52:54.133Z,8.80
2023-03-17T21:55:21.070Z,8.80
2023-03-17T21:57:47.815Z,8.80
2023-03-17T22:00:15.084Z,8.80
2023-03-17T22:02:42.776Z,8.80
2023-03-17T22:05:10.429Z,8.80
2023-03-17T22:07:38.539Z,8.90
2023-03-17T22:10:07.301Z,8.80
2023-03-17T22:12:37.809Z,8.90
2023-03-17T22:15:05.509Z,8.90
2023-03-17T22:17:32.525Z,8.90
2023-03-17T22:19:59.360Z,8.80
2023-03-17T22:22:26.407Z,8.80
2023-03-17T22:24:53.200Z,8.90
2023-03-17T22:27:19.964Z,8.80
2023-03-17T22:29:47.448Z,8.80
2023-03-17T22:32:14.407Z,8.80
2023-03-17T22:34:41.301Z,8.80
2023-03-17T22:37:08.367Z,8.80
2023-03-17T22:39:35.326Z,8.80
2023-03-17T22:42:02.413Z,8.70
2023-03-17T22:44:29.175Z,8.70
2023-03-17T22:46:56.291Z,8.70
2023-03-17T22:49:23.739Z,8.70
2023-03-17T22:51:50.611Z,8.70
2023-03-17T22:54:18.630Z,8.70
2023-03-17T22:56:45.395Z,8.70
2023-03-17T22:59:12.575Z,8.70
2023-03-17T23:01:39.564Z,8.60
2023-03-17T23:04:06.942Z,8.60
2023-03-17T23:06:35.230Z,8.70
2023-03-17T23:09:02.666Z,8.70
2023-03-17T23:11:29.462Z,8.70
2023-03-17T23:13:56.450Z,8.70
2023-03-17T23:16:23.600Z,8.70
2023-03-17T23:18:50.890Z,8.70
2023-03-17T23:21:21.207Z,8.70
2023-03-17T23:23:48.463Z,8.80
2023-03-17T23:26:16.099Z,8.70
2023-03-17T23:28:44.324Z,8.70
2023-03-17T23:31:11.179Z,8.70
2023-03-17T23:33:38.699Z,8.70
2023-03-17T23:36:07.185Z,8.70
2023-03-17T23:38:34.181Z,8.70
2023-03-17T23:41:02.060Z,8.70
2023-03-17T23:43:28.775Z,8.70
2023-03-17T23:45:55.656Z,8.70
2023-03-17T23:48:22.600Z,8.60
2023-03-17T23:50:52.742Z,8.70
2023-03-17T23:53:20.996Z,8.70
2023-03-17T23:55:47.838Z,8.70
2023-03-17T23:58:15.623Z,8.70
